»·PEaware :: QXE1014 KPDX-KGEG

QXE1014 :: KPDX-KGEG

FLIGHT INFORMATION

Flight Status: Arrived
Operator:
Horizon Air
More flights by this operator :: More flights under this callsign
Pilot: Jim M. (18055)
Aircraft: DEHAVILLAND DASH 8 400
(DH8D)
More flights by this aircraft type
Origin: KPDX Portland Intl
United States
Destination: KGEG Spokane Intl
United States
More flights between these airports :: More routes between these airports
Route: BTG PAPPS ZOOMR ZOOMR1
File this flight plan on PilotEdge
Remarks:
Altitude:
(Current/Filed)
23,000ft
Speed:
(Current/Filed)
350kts
Departed: 02-Sep-19 09:41 AM
Arrived: 02-Sep-19 10:39 AM
Distance/Time
Traveled:
242nm/0:58
Distance/Time
To Go:
Arrived

Flight Plot

Page will automatically refresh every two minutes.


Map Options




Map Legend


Flown Route
Filed Route
Departure Airport
Arrival Airport
Navaid (VOR, NDB)
Fix

Horizontal Profiles

Position Reports

Time Latitude Longitude Heading Altitude Ground
Speed
02-Sep-19 08:59 45.586762 -122.592895 53 37ft 0kts
02-Sep-19 09:00 45.586762 -122.592895 53 37ft 0kts
02-Sep-19 09:01 45.586762 -122.592895 53 37ft 0kts
02-Sep-19 09:02 45.586762 -122.592895 53 37ft 0kts
02-Sep-19 09:03 45.586762 -122.592895 53 37ft 0kts
02-Sep-19 09:04 45.586762 -122.592895 53 37ft 0kts
02-Sep-19 09:05 45.586762 -122.592895 53 37ft 0kts
02-Sep-19 09:06 45.586762 -122.592895 53 37ft 0kts
02-Sep-19 09:07 45.586762 -122.592895 53 37ft 0kts
02-Sep-19 09:08 45.586762 -122.592895 53 37ft 0kts
02-Sep-19 09:09 45.586762 -122.592895 53 37ft 0kts
02-Sep-19 09:10 45.586762 -122.592895 53 37ft 0kts
02-Sep-19 09:11 45.586762 -122.592895 53 37ft 0kts
02-Sep-19 09:12 45.586762 -122.592895 53 37ft 0kts
02-Sep-19 09:13 45.586762 -122.592895 53 37ft 0kts
02-Sep-19 09:14 45.586762 -122.592895 53 37ft 0kts
02-Sep-19 09:15 45.586762 -122.592895 53 37ft 0kts
02-Sep-19 09:16 45.586762 -122.592895 53 37ft 0kts
02-Sep-19 09:17 45.586762 -122.592895 53 37ft 0kts
02-Sep-19 09:18 45.586762 -122.592895 53 37ft 0kts
02-Sep-19 09:19 45.586762 -122.592895 53 37ft 0kts
02-Sep-19 09:20 45.586762 -122.592895 53 37ft 0kts
02-Sep-19 09:21 45.586762 -122.592895 53 37ft 0kts
02-Sep-19 09:22 45.586762 -122.592895 53 37ft 0kts
02-Sep-19 09:23 45.586762 -122.592895 53 37ft 0kts
02-Sep-19 09:24 45.586762 -122.592895 53 37ft 0kts
02-Sep-19 09:25 45.586762 -122.592895 53 37ft 0kts
02-Sep-19 09:26 45.586715 -122.592985 51 37ft 2kts
02-Sep-19 09:27 45.586267 -122.593484 350 37ft 2kts
02-Sep-19 09:28 45.585919 -122.593157 315 37ft 0kts
02-Sep-19 09:29 45.585919 -122.593157 315 37ft 0kts
02-Sep-19 09:30 45.585919 -122.593157 315 37ft 0kts
02-Sep-19 09:31 45.585917 -122.593154 315 37ft 0kts
02-Sep-19 09:32 45.585917 -122.593154 315 37ft 0kts
02-Sep-19 09:33 45.586401 -122.593950 307 37ft 12kts
02-Sep-19 09:34 45.588323 -122.598569 299 37ft 13kts
02-Sep-19 09:35 45.589942 -122.602740 299 37ft 12kts
02-Sep-19 09:36 45.591509 -122.601710 47 37ft 5kts
02-Sep-19 09:37 45.593160 -122.599324 44 37ft 8kts
02-Sep-19 09:38 45.594273 -122.597751 45 37ft 0kts
02-Sep-19 09:39 45.594685 -122.597132 49 37ft 9kts
02-Sep-19 09:40 45.586110 -122.572570 114 250ft 151kts
02-Sep-19 09:41 45.564669 -122.515523 118 2381ft 186kts
02-Sep-19 09:43 45.539810 -122.456565 118 5088ft 187kts
02-Sep-19 09:44 45.509892 -122.384333 117 6200ft 262kts
02-Sep-19 09:45 45.476262 -122.302167 119 9128ft 232kts
02-Sep-19 09:46 45.461023 -122.226737 63 11568ft 224kts
02-Sep-19 09:47 45.493710 -122.152332 55 13367ft 235kts
02-Sep-19 09:48 45.527801 -122.074053 57 15062ft 245kts
02-Sep-19 09:49 45.563017 -121.992014 58 16634ft 255kts
02-Sep-19 09:50 45.599538 -121.906478 58 18021ft 264kts
02-Sep-19 09:51 45.636455 -121.819766 59 19243ft 272kts
02-Sep-19 09:52 45.674983 -121.729026 59 20374ft 279kts
02-Sep-19 09:53 45.713867 -121.637135 59 21392ft 286kts
02-Sep-19 09:54 45.753518 -121.543083 60 22332ft 292kts
02-Sep-19 09:55 45.794249 -121.445950 60 23019ft 305kts
02-Sep-19 09:56 45.837566 -121.341829 60 23094ft 332kts
02-Sep-19 09:57 45.884233 -121.229373 60 23095ft 351kts
02-Sep-19 09:58 45.932021 -121.113639 60 23094ft 363kts
02-Sep-19 09:59 45.981818 -120.992597 60 23095ft 370kts
02-Sep-19 10:00 46.032157 -120.869351 60 23100ft 374kts
02-Sep-19 10:01 46.082401 -120.746117 60 23104ft 376kts
02-Sep-19 10:01 46.125637 -120.639932 60 23107ft 377kts
02-Sep-19 10:03 46.185221 -120.492811 60 23106ft 379kts
02-Sep-19 10:04 46.236075 -120.366794 60 23104ft 379kts
02-Sep-19 10:04 46.278469 -120.261341 60 23104ft 380kts
02-Sep-19 10:05 46.328934 -120.135272 60 23104ft 380kts
02-Sep-19 10:07 46.387254 -119.988821 60 23103ft 380kts
02-Sep-19 10:07 46.429159 -119.882744 60 23102ft 381kts
02-Sep-19 10:08 46.493935 -119.773798 43 23102ft 379kts
02-Sep-19 10:09 46.563043 -119.669887 45 23102ft 379kts
02-Sep-19 10:10 46.631033 -119.564161 45 23102ft 379kts
02-Sep-19 10:11 46.697468 -119.461449 45 23104ft 377kts
02-Sep-19 10:12 46.762846 -119.360012 45 22787ft 381kts
02-Sep-19 10:13 46.829216 -119.256679 45 21864ft 382kts
02-Sep-19 10:14 46.895416 -119.153095 45 20956ft 379kts
02-Sep-19 10:15 46.962244 -119.048282 45 20022ft 377kts
02-Sep-19 10:16 47.029609 -118.942038 45 19073ft 373kts
02-Sep-19 10:17 47.096446 -118.836345 45 18122ft 369kts
02-Sep-19 10:18 47.162075 -118.732050 46 17176ft 366kts
02-Sep-19 10:19 47.228253 -118.626544 46 15888ft 364kts
02-Sep-19 10:20 47.293317 -118.522403 46 14701ft 357kts
02-Sep-19 10:21 47.356075 -118.421518 46 13553ft 346kts
02-Sep-19 10:22 47.417124 -118.322016 50 13007ft 347kts
02-Sep-19 10:23 47.449462 -118.197399 73 12991ft 344kts
02-Sep-19 10:24 47.473955 -118.073782 72 12990ft 335kts
02-Sep-19 10:25 47.499104 -117.951898 72 12994ft 336kts
02-Sep-19 10:26 47.513567 -117.825633 85 12325ft 336kts
02-Sep-19 10:27 47.521523 -117.698636 85 11185ft 327kts
02-Sep-19 10:28 47.529193 -117.582292 85 9802ft 292kts
02-Sep-19 10:29 47.536389 -117.471911 85 8397ft 284kts
02-Sep-19 10:30 47.565213 -117.381038 44 7305ft 253kts
02-Sep-19 10:31 47.610426 -117.314328 45 6380ft 243kts
02-Sep-19 10:32 47.659979 -117.257789 4 5333ft 243kts
02-Sep-19 10:33 47.713412 -117.299817 304 4995ft 227kts
02-Sep-19 10:34 47.720902 -117.379309 238 4839ft 206kts
02-Sep-19 10:35 47.685796 -117.436689 225 3876ft 184kts
02-Sep-19 10:36 47.656266 -117.480616 225 3087ft 144kts
02-Sep-19 10:37 47.633175 -117.515317 225 2460ft 125kts
02-Sep-19 10:38 47.619798 -117.535459 225 2379ft 28kts
02-Sep-19 10:39 47.618850 -117.541629 26 2379ft 11kts
02-Sep-19 10:40 47.621622 -117.537557 45 2379ft 22kts
02-Sep-19 10:41 47.623872 -117.537090 303 2379ft 11kts
02-Sep-19 10:42 47.624972 -117.537601 40 2379ft 0kts
02-Sep-19 10:43 47.625009 -117.537553 40 2379ft 0kts
02-Sep-19 10:44 47.625009 -117.537553 40 2379ft 0kts
02-Sep-19 10:45 47.625009 -117.537553 40 2379ft 0kts

Navigation Log

Ident Type
Flight plan parsing failed, navigation log unavailable